createdAt,value
2019-02-07T00:00:57.464Z,0.00
2019-02-07T00:01:57.455Z,0.00
2019-02-07T00:02:57.448Z,0.00
2019-02-07T00:03:57.488Z,0.00
2019-02-07T00:04:57.427Z,0.00
2019-02-07T00:05:57.433Z,0.00
2019-02-07T00:06:57.404Z,0.00
2019-02-07T00:07:57.395Z,0.00
2019-02-07T00:08:57.384Z,0.00
2019-02-07T00:09:57.378Z,0.00
2019-02-07T00:10:57.381Z,0.00
2019-02-07T00:11:57.448Z,0.00
2019-02-07T00:12:57.454Z,0.00
2019-02-07T00:13:57.334Z,0.00
2019-02-07T00:14:57.324Z,0.00
2019-02-07T00:15:57.311Z,0.00
2019-02-07T00:16:57.301Z,0.00
2019-02-07T00:17:57.307Z,0.00
2019-02-07T00:18:57.288Z,0.00
2019-02-07T00:19:57.273Z,0.00
2019-02-07T00:20:57.267Z,0.00
2019-02-07T00:21:57.253Z,0.00
2019-02-07T00:22:57.248Z,0.00
2019-02-07T00:23:57.258Z,0.00
2019-02-07T00:24:57.223Z,0.00
2019-02-07T00:25:57.212Z,0.00
2019-02-07T00:26:57.205Z,0.00
2019-02-07T00:27:57.197Z,0.00
2019-02-07T00:28:57.186Z,0.00
2019-02-07T00:29:57.190Z,0.00
2019-02-07T00:30:57.160Z,0.00
2019-02-07T00:31:57.157Z,0.00
2019-02-07T00:32:57.145Z,0.00
2019-02-07T00:33:57.162Z,0.00
2019-02-07T00:34:57.119Z,0.00
2019-02-07T00:35:57.122Z,0.00
2019-02-07T00:36:57.103Z,0.00
2019-02-07T00:37:57.087Z,0.00
2019-02-07T00:38:57.081Z,0.00
2019-02-07T00:39:57.068Z,0.00
2019-02-07T00:40:57.058Z,0.00
2019-02-07T00:41:57.067Z,0.00
2019-02-07T00:42:57.036Z,0.00
2019-02-07T00:43:57.029Z,0.00
2019-02-07T00:44:57.016Z,0.00
2019-02-07T00:45:57.005Z,0.00
2019-02-07T00:46:56.998Z,0.00
2019-02-07T00:47:57.006Z,0.00
2019-02-07T00:48:56.997Z,0.00
2019-02-07T00:49:56.965Z,0.00
2019-02-07T00:50:56.955Z,0.00
2019-02-07T00:51:56.948Z,0.00
2019-02-07T00:52:56.943Z,0.00
2019-02-07T00:53:56.940Z,0.00
2019-02-07T00:54:56.914Z,0.00
2019-02-07T00:55:56.904Z,0.00
2019-02-07T00:56:56.898Z,0.00
2019-02-07T00:57:56.888Z,0.00
2019-02-07T00:58:56.880Z,0.00
2019-02-07T00:59:56.874Z,0.00
2019-02-07T01:00:56.855Z,0.00
2019-02-07T01:01:56.845Z,0.00
2019-02-07T01:02:56.833Z,0.00
2019-02-07T01:03:56.819Z,0.00
2019-02-07T01:04:56.806Z,0.00
2019-02-07T01:05:56.832Z,0.00
2019-02-07T01:06:56.790Z,0.00
2019-02-07T01:07:56.777Z,0.00
2019-02-07T01:08:56.768Z,0.00
2019-02-07T01:09:56.761Z,0.00
2019-02-07T01:10:56.768Z,0.00
2019-02-07T01:11:56.748Z,0.00
2019-02-07T01:12:56.734Z,0.00
2019-02-07T01:13:56.717Z,0.00
2019-02-07T01:15:02.253Z,0.00
2019-02-07T01:15:57.698Z,0.00
2019-02-07T01:16:56.686Z,0.00
2019-02-07T01:17:56.688Z,0.00
2019-02-07T01:18:56.668Z,0.00
2019-02-07T01:19:56.672Z,0.00
2019-02-07T01:20:56.644Z,0.00
2019-02-07T01:21:56.631Z,0.00
2019-02-07T01:22:56.626Z,0.00
2019-02-07T01:23:56.657Z,0.00
2019-02-07T01:24:56.602Z,0.00
2019-02-07T01:25:56.602Z,0.00
2019-02-07T01:26:56.583Z,0.00
2019-02-07T01:27:56.572Z,0.00
2019-02-07T01:28:56.564Z,0.00
2019-02-07T01:29:56.564Z,0.00
2019-02-07T01:30:56.552Z,0.00
2019-02-07T01:31:56.531Z,0.00
2019-02-07T01:32:56.524Z,0.00
2019-02-07T01:33:56.512Z,0.00
2019-02-07T01:34:56.499Z,0.00
2019-02-07T01:35:56.513Z,0.00
2019-02-07T01:36:56.483Z,0.00
2019-02-07T01:37:56.470Z,0.00
2019-02-07T01:38:56.464Z,0.00
2019-02-07T01:39:56.451Z,0.00
2019-02-07T01:40:56.439Z,0.00
2019-02-07T01:41:56.445Z,0.00
2019-02-07T01:42:56.429Z,0.00
2019-02-07T01:43:56.414Z,0.00
2019-02-07T01:44:56.396Z,0.00
2019-02-07T01:45:56.387Z,0.00
2019-02-07T01:46:56.382Z,0.00
2019-02-07T01:47:56.393Z,0.00
2019-02-07T01:48:56.361Z,0.00
2019-02-07T01:49:56.345Z,0.00
2019-02-07T01:50:56.342Z,0.00
2019-02-07T01:51:56.332Z,0.00
2019-02-07T01:52:56.316Z,0.00
2019-02-07T01:53:56.335Z,0.00
2019-02-07T01:54:56.294Z,0.00
2019-02-07T01:55:56.282Z,0.00
2019-02-07T01:56:56.276Z,0.00
2019-02-07T01:57:56.274Z,0.00
2019-02-07T01:58:56.266Z,0.00
2019-02-07T01:59:56.285Z,0.00
2019-02-07T02:00:56.234Z,0.00
2019-02-07T02:01:56.219Z,0.00
2019-02-07T02:02:56.217Z,0.00
2019-02-07T02:03:56.205Z,0.00
2019-02-07T02:04:56.193Z,0.00
2019-02-07T02:05:56.202Z,0.00
2019-02-07T02:06:56.175Z,0.00
2019-02-07T02:07:56.164Z,0.00
2019-02-07T02:08:56.162Z,0.00
2019-02-07T02:09:56.145Z,0.00
2019-02-07T02:10:56.135Z,0.00
2019-02-07T02:11:56.173Z,0.00
2019-02-07T02:12:56.116Z,0.00
2019-02-07T02:13:56.099Z,0.00
2019-02-07T02:14:56.098Z,0.00
2019-02-07T02:15:56.077Z,0.00
2019-02-07T02:16:56.073Z,0.00
2019-02-07T02:17:56.100Z,0.00
2019-02-07T02:18:56.051Z,0.00
2019-02-07T02:19:56.037Z,0.00
2019-02-07T02:20:56.028Z,0.00
2019-02-07T02:21:56.028Z,0.00
2019-02-07T02:22:56.003Z,0.00
2019-02-07T02:23:56.022Z,0.00
2019-02-07T02:24:55.987Z,0.00
2019-02-07T02:25:55.970Z,0.00
2019-02-07T02:26:55.964Z,0.00
2019-02-07T02:27:55.960Z,0.00
2019-02-07T02:28:55.945Z,0.00
2019-02-07T02:29:55.958Z,0.00
2019-02-07T02:30:55.920Z,0.00
2019-02-07T02:31:55.977Z,0.00
2019-02-07T02:32:55.907Z,0.00
2019-02-07T02:33:55.895Z,0.00
2019-02-07T02:34:55.886Z,0.00
2019-02-07T02:35:55.883Z,0.00
2019-02-07T02:36:55.864Z,0.00
2019-02-07T02:37:55.852Z,0.00
2019-02-07T02:38:55.849Z,0.00
2019-02-07T02:39:55.835Z,0.00
2019-02-07T02:40:55.822Z,0.00
2019-02-07T02:41:55.838Z,0.00
2019-02-07T02:42:55.802Z,0.00
2019-02-07T02:43:55.793Z,0.00
2019-02-07T02:44:55.776Z,0.00
2019-02-07T02:45:55.776Z,0.00
2019-02-07T02:46:55.757Z,0.00
2019-02-07T02:47:55.771Z,0.00
2019-02-07T02:48:55.736Z,0.00
2019-02-07T02:49:55.727Z,0.00
2019-02-07T02:50:55.714Z,0.00
2019-02-07T02:51:55.730Z,0.00
2019-02-07T02:52:55.700Z,0.00
2019-02-07T02:53:55.704Z,0.00
2019-02-07T02:54:55.701Z,0.00
2019-02-07T02:55:55.685Z,0.00
2019-02-07T02:56:55.656Z,0.00
2019-02-07T02:57:55.647Z,0.00
2019-02-07T02:58:55.645Z,0.00
2019-02-07T02:59:55.652Z,0.00
2019-02-07T03:00:55.614Z,0.00
2019-02-07T03:01:55.607Z,0.00
2019-02-07T03:02:55.595Z,0.00
2019-02-07T03:03:55.585Z,0.00
2019-02-07T03:04:55.576Z,0.00
2019-02-07T03:05:55.582Z,0.00
2019-02-07T03:06:55.553Z,0.00
2019-02-07T03:07:55.553Z,0.00
2019-02-07T03:08:55.534Z,0.00
2019-02-07T03:09:55.522Z,0.00
2019-02-07T03:10:55.521Z,0.00
2019-02-07T03:11:55.518Z,0.00
2019-02-07T03:12:55.500Z,0.00
2019-02-07T03:13:55.492Z,0.00
2019-02-07T03:14:55.478Z,0.00
2019-02-07T03:15:55.491Z,0.00
2019-02-07T03:16:55.450Z,0.00
2019-02-07T03:17:55.457Z,0.00
2019-02-07T03:18:55.435Z,0.00
2019-02-07T03:19:55.442Z,0.00
2019-02-07T03:20:55.423Z,0.00
2019-02-07T03:21:55.448Z,0.00
2019-02-07T03:22:55.386Z,0.00
2019-02-07T03:23:55.399Z,0.00
2019-02-07T03:24:55.380Z,0.00
2019-02-07T03:25:55.357Z,0.00
2019-02-07T03:26:55.349Z,0.00
2019-02-07T03:27:55.341Z,0.00
2019-02-07T03:28:55.329Z,0.00
2019-02-07T03:29:55.333Z,0.00
2019-02-07T03:30:55.305Z,0.00
2019-02-07T03:31:55.312Z,0.00
2019-02-07T03:32:55.299Z,0.00
2019-02-07T03:33:55.276Z,0.00
2019-02-07T03:34:55.273Z,0.00
2019-02-07T03:35:55.277Z,0.00
2019-02-07T03:36:55.244Z,0.00
2019-02-07T03:37:55.231Z,0.00
2019-02-07T03:38:55.229Z,0.00
2019-02-07T03:39:55.225Z,0.00
2019-02-07T03:40:55.204Z,0.00
2019-02-07T03:41:55.228Z,0.00
2019-02-07T03:42:55.191Z,0.00
2019-02-07T03:43:55.176Z,0.00
2019-02-07T03:44:55.167Z,0.00
2019-02-07T03:46:02.817Z,0.00
2019-02-07T03:46:56.154Z,0.00
2019-02-07T03:47:55.130Z,0.00
2019-02-07T03:48:55.121Z,0.00
2019-02-07T03:49:55.110Z,0.00
2019-02-07T03:50:55.096Z,0.00
2019-02-07T03:51:55.088Z,0.00
2019-02-07T03:52:55.106Z,0.00
2019-02-07T03:53:55.073Z,0.00
2019-02-07T03:54:55.059Z,0.00
2019-02-07T03:55:55.062Z,0.00
2019-02-07T03:56:55.041Z,0.00
2019-02-07T03:57:55.035Z,0.00
2019-02-07T03:58:55.030Z,0.00
2019-02-07T03:59:55.008Z,0.00
2019-02-07T04:00:54.996Z,0.00
2019-02-07T04:02:02.029Z,0.00
2019-02-07T04:02:54.976Z,0.00
2019-02-07T04:03:54.968Z,0.00
2019-02-07T04:04:54.969Z,0.00
2019-02-07T04:05:54.945Z,0.00
2019-02-07T04:06:54.934Z,0.00
2019-02-07T04:07:54.927Z,0.00
2019-02-07T04:08:54.919Z,0.00
2019-02-07T04:09:54.912Z,0.00
2019-02-07T04:10:54.908Z,0.00
2019-02-07T04:11:54.883Z,0.00
2019-02-07T04:12:54.875Z,0.00
2019-02-07T04:13:54.864Z,0.00
2019-02-07T04:14:54.848Z,0.00
2019-02-07T04:15:54.839Z,0.00
2019-02-07T04:16:54.848Z,0.00
2019-02-07T04:17:54.825Z,0.00
2019-02-07T04:18:54.810Z,0.00
2019-02-07T04:19:54.800Z,0.00
2019-02-07T04:20:54.790Z,0.00
2019-02-07T04:21:54.781Z,0.00
2019-02-07T04:22:54.784Z,0.00
2019-02-07T04:23:54.759Z,0.00
2019-02-07T04:24:54.749Z,0.00
2019-02-07T04:25:54.739Z,0.00
2019-02-07T04:26:54.736Z,0.00
2019-02-07T04:27:54.723Z,0.00
2019-02-07T04:28:54.729Z,0.00
2019-02-07T04:29:54.698Z,0.00
2019-02-07T04:30:54.688Z,0.00
2019-02-07T04:31:54.679Z,0.00
2019-02-07T04:32:54.666Z,0.00
2019-02-07T04:33:54.656Z,0.00
2019-02-07T04:34:54.663Z,0.00
2019-02-07T04:35:54.644Z,0.00
2019-02-07T04:36:54.627Z,0.00
2019-02-07T04:37:54.615Z,0.00
2019-02-07T04:38:54.620Z,0.00
2019-02-07T04:39:54.595Z,0.00
2019-02-07T04:40:54.620Z,0.00
2019-02-07T04:41:54.578Z,0.00
2019-02-07T04:42:54.570Z,0.00
2019-02-07T04:43:54.557Z,0.00
2019-02-07T04:44:54.544Z,0.00
2019-02-07T04:45:54.535Z,0.00
2019-02-07T04:46:54.544Z,0.00
2019-02-07T04:47:54.516Z,0.00
2019-02-07T04:48:54.502Z,0.00
2019-02-07T04:49:54.501Z,0.00
2019-02-07T04:50:54.484Z,0.00
2019-02-07T04:51:54.471Z,0.00
2019-02-07T04:52:54.484Z,0.00
2019-02-07T04:53:54.459Z,0.00
2019-02-07T04:54:54.443Z,0.00
2019-02-07T04:55:54.434Z,0.00
2019-02-07T04:56:54.424Z,0.00
2019-02-07T04:57:54.418Z,0.00
2019-02-07T04:58:54.421Z,0.00
2019-02-07T04:59:54.391Z,0.00
2019-02-07T05:00:54.383Z,0.00
2019-02-07T05:01:54.379Z,0.00
2019-02-07T05:02:54.360Z,0.00
2019-02-07T05:03:54.359Z,0.00
2019-02-07T05:04:54.353Z,0.00
2019-02-07T05:05:54.335Z,40.00
2019-02-07T05:06:54.319Z,0.00
2019-02-07T05:07:54.312Z,0.00
2019-02-07T05:08:54.299Z,0.00
2019-02-07T05:09:54.291Z,0.00
2019-02-07T05:10:54.299Z,0.00
2019-02-07T05:11:54.275Z,0.00
2019-02-07T05:12:54.255Z,44.00
2019-02-07T05:13:54.248Z,40.00
2019-02-07T05:14:54.240Z,40.00
2019-02-07T05:15:54.230Z,40.00
2019-02-07T05:16:54.235Z,40.00
2019-02-07T05:17:54.208Z,40.00
2019-02-07T05:18:54.198Z,36.00
2019-02-07T05:19:54.193Z,40.00
2019-02-07T05:20:54.185Z,40.00
2019-02-07T05:21:54.168Z,40.00
2019-02-07T05:22:54.171Z,32.00
2019-02-07T05:23:54.146Z,36.00
2019-02-07T05:24:54.136Z,36.00
2019-02-07T05:25:54.129Z,36.00
2019-02-07T05:26:54.127Z,20.00
2019-02-07T05:27:54.107Z,0.00
2019-02-07T05:28:54.120Z,0.00
2019-02-07T05:29:54.090Z,0.00
2019-02-07T05:30:54.079Z,0.00
2019-02-07T05:31:54.065Z,0.00
2019-02-07T05:32:54.055Z,0.00
2019-02-07T05:33:54.045Z,0.00
2019-02-07T05:34:54.224Z,0.00
2019-02-07T05:35:54.039Z,0.00
2019-02-07T05:36:54.017Z,0.00
2019-02-07T05:37:54.088Z,0.00
2019-02-07T05:38:53.991Z,0.00
2019-02-07T05:39:53.981Z,0.00
2019-02-07T05:40:53.988Z,36.00
2019-02-07T05:41:53.962Z,40.00
2019-02-07T05:42:53.953Z,40.00
2019-02-07T05:43:53.940Z,36.00
2019-02-07T05:44:53.930Z,36.00
2019-02-07T05:45:54.042Z,36.00
2019-02-07T05:46:53.926Z,40.00
2019-02-07T05:47:53.898Z,36.00
2019-02-07T05:48:53.891Z,36.00
2019-02-07T05:49:53.874Z,36.00
2019-02-07T05:50:53.871Z,36.00
2019-02-07T05:51:53.858Z,36.00
2019-02-07T05:52:53.868Z,36.00
2019-02-07T05:53:53.839Z,36.00
2019-02-07T05:54:53.829Z,32.00
2019-02-07T05:55:53.827Z,32.00
2019-02-07T05:56:53.811Z,32.00
2019-02-07T05:57:53.808Z,32.00
2019-02-07T05:58:53.805Z,32.00
2019-02-07T05:59:53.782Z,32.00
2019-02-07T06:00:53.768Z,32.00
2019-02-07T06:01:53.757Z,32.00
2019-02-07T06:02:53.742Z,32.00
2019-02-07T06:03:53.736Z,32.00
2019-02-07T06:04:53.739Z,32.00
2019-02-07T06:05:53.718Z,32.00
2019-02-07T06:06:53.707Z,32.00
2019-02-07T06:07:53.749Z,32.00
2019-02-07T06:08:53.684Z,32.00
2019-02-07T06:09:53.674Z,32.00
2019-02-07T06:10:53.688Z,32.00
2019-02-07T06:11:53.709Z,32.00
2019-02-07T06:12:53.649Z,32.00
2019-02-07T06:13:53.635Z,32.00
2019-02-07T06:14:53.625Z,32.00
2019-02-07T06:15:53.615Z,32.00
2019-02-07T06:17:02.338Z,36.00
2019-02-07T06:17:54.623Z,36.00
2019-02-07T06:18:53.586Z,36.00
2019-02-07T06:19:53.572Z,36.00
2019-02-07T06:20:53.562Z,36.00
2019-02-07T06:21:53.553Z,36.00
2019-02-07T06:22:53.557Z,36.00
2019-02-07T06:23:53.636Z,36.00
2019-02-07T06:24:53.521Z,36.00
2019-02-07T06:25:53.516Z,40.00
2019-02-07T06:26:53.503Z,40.00
2019-02-07T06:27:53.491Z,44.00
2019-02-07T06:28:53.501Z,44.00
2019-02-07T06:29:53.474Z,44.00
2019-02-07T06:30:53.463Z,44.00
2019-02-07T06:31:53.451Z,12.00
2019-02-07T06:32:53.445Z,16.00
2019-02-07T06:33:53.424Z,20.00
2019-02-07T06:34:53.433Z,24.00
2019-02-07T06:35:53.411Z,24.00
2019-02-07T06:36:53.398Z,32.00
2019-02-07T06:37:53.392Z,32.00
2019-02-07T06:38:53.379Z,40.00
2019-02-07T06:39:53.370Z,44.00
2019-02-07T06:40:53.374Z,48.00
2019-02-07T06:41:53.353Z,52.00
2019-02-07T06:42:53.335Z,60.00
2019-02-07T06:43:53.334Z,68.00
2019-02-07T06:44:53.318Z,76.00
2019-02-07T06:45:53.309Z,80.00
2019-02-07T06:46:53.312Z,88.00
2019-02-07T06:47:53.305Z,96.00
2019-02-07T06:48:53.273Z,100.00
2019-02-07T06:49:53.266Z,112.00
2019-02-07T06:50:53.256Z,120.00
2019-02-07T06:51:53.247Z,128.00
2019-02-07T06:52:53.269Z,144.00
2019-02-07T06:53:53.226Z,156.00
2019-02-07T06:54:53.217Z,172.00
2019-02-07T06:55:53.223Z,184.00
2019-02-07T06:56:53.226Z,200.00
2019-02-07T06:57:53.186Z,216.00
2019-02-07T06:58:55.186Z,236.00
2019-02-07T06:59:53.164Z,252.00
2019-02-07T07:00:53.165Z,276.00
2019-02-07T07:01:53.145Z,300.00
2019-02-07T07:02:53.138Z,328.00
2019-02-07T07:03:53.126Z,356.00
2019-02-07T07:04:53.148Z,388.00
2019-02-07T07:05:53.100Z,428.00
2019-02-07T07:06:53.094Z,468.00
2019-02-07T07:07:53.106Z,496.00
2019-02-07T07:08:53.077Z,532.00
2019-02-07T07:09:53.109Z,556.00
2019-02-07T07:10:53.073Z,588.00
2019-02-07T07:11:53.039Z,616.00
2019-02-07T07:12:53.032Z,640.00
2019-02-07T07:13:53.026Z,660.00
2019-02-07T07:14:53.013Z,692.00
2019-02-07T07:15:53.001Z,712.00
2019-02-07T07:16:53.007Z,752.00
2019-02-07T07:17:52.981Z,780.00
2019-02-07T07:18:52.971Z,800.00
2019-02-07T07:19:52.962Z,808.00
2019-02-07T07:20:52.953Z,824.00
2019-02-07T07:21:52.940Z,844.00
2019-02-07T07:22:52.946Z,876.00
2019-02-07T07:23:52.920Z,912.00
2019-02-07T07:24:52.908Z,952.00
2019-02-07T07:25:52.901Z,992.00
2019-02-07T07:26:52.890Z,1032.00
2019-02-07T07:27:52.877Z,1048.00
2019-02-07T07:28:52.881Z,1080.00
2019-02-07T07:29:52.857Z,1112.00
2019-02-07T07:30:52.856Z,1144.00
2019-02-07T07:31:52.839Z,1160.00
2019-02-07T07:32:52.826Z,1192.00
2019-02-07T07:33:52.816Z,1212.00
2019-02-07T07:34:52.826Z,1252.00
2019-02-07T07:35:52.797Z,1280.00
2019-02-07T07:36:52.788Z,1276.00
2019-02-07T07:37:52.775Z,1300.00
2019-02-07T07:38:52.765Z,1320.00
2019-02-07T07:39:52.755Z,1324.00
2019-02-07T07:40:52.766Z,1328.00
2019-02-07T07:41:52.734Z,1320.00
2019-02-07T07:42:52.727Z,1352.00
2019-02-07T07:43:52.717Z,1368.00
2019-02-07T07:44:52.739Z,1396.00
2019-02-07T07:45:52.692Z,1432.00
2019-02-07T07:46:52.698Z,1468.00
2019-02-07T07:47:52.673Z,1500.00
2019-02-07T07:48:52.663Z,1536.00
2019-02-07T07:49:52.651Z,1576.00
2019-02-07T07:50:52.641Z,1580.00
2019-02-07T07:51:52.631Z,1592.00
2019-02-07T07:52:52.634Z,1608.00
2019-02-07T07:53:52.611Z,1612.00
2019-02-07T07:54:52.599Z,1632.00
2019-02-07T07:55:52.589Z,1640.00
2019-02-07T07:56:52.579Z,1648.00
2019-02-07T07:57:52.567Z,1656.00
2019-02-07T07:58:52.573Z,1672.00
2019-02-07T07:59:52.548Z,1672.00
2019-02-07T08:00:52.535Z,1624.00
2019-02-07T08:01:52.526Z,1624.00
2019-02-07T08:02:52.516Z,1636.00
2019-02-07T08:03:52.503Z,1644.00
2019-02-07T08:04:52.527Z,1660.00
2019-02-07T08:05:53.483Z,1716.00
2019-02-07T08:06:52.475Z,1780.00
2019-02-07T08:07:52.465Z,1840.00
2019-02-07T08:08:52.456Z,1920.00
2019-02-07T08:09:52.443Z,2020.00
2019-02-07T08:10:52.448Z,2132.00
2019-02-07T08:11:52.422Z,2180.00
2019-02-07T08:12:52.418Z,2156.00
2019-02-07T08:13:52.399Z,2048.00
2019-02-07T08:14:52.388Z,1920.00
2019-02-07T08:15:52.378Z,1852.00
2019-02-07T08:16:52.385Z,1760.00
2019-02-07T08:17:52.356Z,1728.00
2019-02-07T08:18:52.350Z,1636.00
2019-02-07T08:19:52.337Z,1552.00
2019-02-07T08:20:52.325Z,1520.00
2019-02-07T08:21:52.318Z,1520.00
2019-02-07T08:22:52.318Z,1540.00
2019-02-07T08:23:52.295Z,1640.00
2019-02-07T08:24:52.289Z,1696.00
2019-02-07T08:25:52.273Z,1752.00
2019-02-07T08:26:52.264Z,1868.00
2019-02-07T08:27:52.254Z,1840.00
2019-02-07T08:28:52.258Z,1828.00
2019-02-07T08:29:52.233Z,1848.00
2019-02-07T08:30:52.222Z,1860.00
2019-02-07T08:31:52.215Z,1868.00
2019-02-07T08:32:52.203Z,1884.00
2019-02-07T08:33:52.197Z,1892.00
2019-02-07T08:34:52.200Z,1896.00
2019-02-07T08:35:52.171Z,1908.00
2019-02-07T08:36:52.161Z,1984.00
2019-02-07T08:37:52.151Z,2120.00
2019-02-07T08:38:52.143Z,2320.00
2019-02-07T08:39:52.136Z,2600.00
2019-02-07T08:40:52.152Z,2840.00
2019-02-07T08:41:52.108Z,3152.00
2019-02-07T08:42:52.100Z,3360.00
2019-02-07T08:43:52.109Z,3424.00
2019-02-07T08:44:54.983Z,3564.00
2019-02-07T08:45:52.072Z,3788.00
2019-02-07T08:46:52.094Z,3932.00
2019-02-07T08:47:58.600Z,3916.00
2019-02-07T08:48:53.061Z,3960.00
2019-02-07T08:49:52.032Z,3980.00
2019-02-07T08:50:52.019Z,4088.00
2019-02-07T08:51:52.015Z,4112.00
2019-02-07T08:52:52.018Z,4132.00
2019-02-07T08:53:51.986Z,4360.00
2019-02-07T08:54:51.977Z,4612.00
2019-02-07T08:55:51.964Z,4532.00
2019-02-07T08:56:51.955Z,4640.00
2019-02-07T08:57:51.947Z,4764.00
2019-02-07T08:58:51.947Z,4800.00
2019-02-07T08:59:51.922Z,4720.00
2019-02-07T09:00:51.913Z,4724.00
2019-02-07T09:01:51.903Z,4832.00
2019-02-07T09:02:52.211Z,4852.00
2019-02-07T09:03:51.881Z,4872.00
2019-02-07T09:04:51.889Z,4528.00
2019-02-07T09:05:51.862Z,3968.00
2019-02-07T09:06:51.849Z,3560.00
2019-02-07T09:07:51.842Z,3164.00
2019-02-07T09:08:51.830Z,2984.00
2019-02-07T09:09:51.820Z,3088.00
2019-02-07T09:10:51.827Z,3316.00
2019-02-07T09:11:51.798Z,3448.00
2019-02-07T09:12:51.792Z,3468.00
2019-02-07T09:13:53.778Z,3464.00
2019-02-07T09:14:51.770Z,3576.00
2019-02-07T09:15:51.758Z,3876.00
2019-02-07T09:16:51.760Z,4328.00
2019-02-07T09:17:51.735Z,4860.00
2019-02-07T09:18:51.724Z,5140.00
2019-02-07T09:19:51.715Z,5208.00
2019-02-07T09:20:51.703Z,5456.00
2019-02-07T09:21:51.696Z,5720.00
2019-02-07T09:22:51.702Z,5664.00
2019-02-07T09:23:51.672Z,5348.00
2019-02-07T09:24:51.663Z,5028.00
2019-02-07T09:25:51.650Z,4772.00
2019-02-07T09:26:51.640Z,4572.00
2019-02-07T09:27:51.630Z,4564.00
2019-02-07T09:28:51.634Z,4608.00
2019-02-07T09:29:51.608Z,4896.00
2019-02-07T09:30:51.599Z,5180.00
2019-02-07T09:31:51.589Z,5536.00
2019-02-07T09:32:51.579Z,5624.00
2019-02-07T09:33:51.567Z,5584.00
2019-02-07T09:34:51.573Z,5568.00
2019-02-07T09:35:51.547Z,5556.00
2019-02-07T09:36:51.535Z,5544.00
2019-02-07T09:37:51.528Z,5656.00
2019-02-07T09:38:51.521Z,5876.00
2019-02-07T09:39:51.506Z,5756.00
2019-02-07T09:40:51.509Z,5752.00
2019-02-07T09:41:51.487Z,6024.00
2019-02-07T09:42:51.472Z,6852.00
2019-02-07T09:43:51.462Z,6964.00
2019-02-07T09:44:51.454Z,6096.00
2019-02-07T09:45:51.443Z,5316.00
2019-02-07T09:46:51.450Z,4900.00
2019-02-07T09:47:51.421Z,4724.00
2019-02-07T09:48:51.411Z,4940.00
2019-02-07T09:49:51.398Z,5252.00
2019-02-07T09:50:51.392Z,5456.00
2019-02-07T09:51:51.377Z,5372.00
2019-02-07T09:52:51.392Z,5088.00
2019-02-07T09:53:51.356Z,4764.00
2019-02-07T09:54:51.346Z,4420.00
2019-02-07T09:55:51.337Z,4032.00
2019-02-07T09:56:51.327Z,3744.00
2019-02-07T09:57:51.319Z,3520.00
2019-02-07T09:58:51.329Z,3412.00
2019-02-07T09:59:51.296Z,3424.00
2019-02-07T10:00:51.285Z,3480.00
2019-02-07T10:01:51.275Z,3464.00
2019-02-07T10:02:58.306Z,3304.00
2019-02-07T10:03:51.253Z,3160.00
2019-02-07T10:04:51.256Z,3212.00
2019-02-07T10:05:51.234Z,3376.00
2019-02-07T10:06:51.224Z,3456.00
2019-02-07T10:07:51.218Z,3468.00
2019-02-07T10:08:51.201Z,3628.00
2019-02-07T10:09:51.192Z,3912.00
2019-02-07T10:10:51.199Z,4240.00
2019-02-07T10:11:51.202Z,4572.00
2019-02-07T10:12:51.163Z,4840.00
2019-02-07T10:13:51.154Z,4912.00
2019-02-07T10:14:51.144Z,5040.00
2019-02-07T10:15:51.132Z,5088.00
2019-02-07T10:16:51.134Z,4728.00
2019-02-07T10:17:51.115Z,4464.00
2019-02-07T10:18:51.101Z,4448.00
2019-02-07T10:19:51.100Z,4392.00
2019-02-07T10:20:51.091Z,4388.00
2019-02-07T10:21:51.071Z,4444.00
2019-02-07T10:22:51.079Z,4388.00
2019-02-07T10:23:51.047Z,4236.00
2019-02-07T10:24:51.041Z,3992.00
2019-02-07T10:25:51.525Z,3764.00
2019-02-07T10:26:51.018Z,3640.00
2019-02-07T10:27:51.007Z,3448.00
2019-02-07T10:28:51.012Z,3296.00
2019-02-07T10:29:50.989Z,3192.00
2019-02-07T10:30:50.970Z,3160.00
2019-02-07T10:31:50.964Z,3244.00
2019-02-07T10:32:50.958Z,3344.00
2019-02-07T10:33:50.950Z,3372.00
2019-02-07T10:34:50.957Z,3364.00
2019-02-07T10:35:50.923Z,3412.00
2019-02-07T10:36:50.914Z,3480.00
2019-02-07T10:37:50.906Z,3580.00
2019-02-07T10:38:50.897Z,3756.00
2019-02-07T10:39:50.884Z,3956.00
2019-02-07T10:40:50.890Z,4116.00
2019-02-07T10:41:50.858Z,4240.00
2019-02-07T10:42:50.852Z,4184.00
2019-02-07T10:43:50.842Z,3916.00
2019-02-07T10:44:50.839Z,3860.00
2019-02-07T10:45:50.819Z,4016.00
2019-02-07T10:46:50.823Z,4164.00
2019-02-07T10:47:50.797Z,4276.00
2019-02-07T10:48:50.787Z,4196.00
2019-02-07T10:49:58.952Z,4024.00
2019-02-07T10:50:51.778Z,4216.00
2019-02-07T10:51:50.759Z,4564.00
2019-02-07T10:52:50.771Z,4700.00
2019-02-07T10:53:50.736Z,4776.00
2019-02-07T10:54:50.730Z,4816.00
2019-02-07T10:55:50.714Z,5036.00
2019-02-07T10:56:50.705Z,5304.00
2019-02-07T10:57:50.701Z,5500.00
2019-02-07T10:58:50.704Z,5900.00
2019-02-07T10:59:50.673Z,6344.00
2019-02-07T11:00:50.663Z,6152.00
2019-02-07T11:01:50.659Z,5876.00
2019-02-07T11:02:50.647Z,5944.00
2019-02-07T11:03:50.630Z,6040.00
2019-02-07T11:04:50.634Z,5976.00
2019-02-07T11:05:50.610Z,6044.00
2019-02-07T11:06:50.601Z,6168.00
2019-02-07T11:07:50.592Z,6104.00
2019-02-07T11:08:50.579Z,5700.00
2019-02-07T11:09:50.573Z,5320.00
2019-02-07T11:10:50.659Z,4964.00
2019-02-07T11:11:50.550Z,4720.00
2019-02-07T11:12:50.531Z,4696.00
2019-02-07T11:13:50.528Z,4568.00
2019-02-07T11:14:50.518Z,4656.00
2019-02-07T11:15:50.505Z,4472.00
2019-02-07T11:16:50.515Z,4132.00
2019-02-07T11:17:50.492Z,3916.00
2019-02-07T11:18:55.648Z,4160.00
2019-02-07T11:19:51.461Z,5116.00
2019-02-07T11:20:50.446Z,6072.00
2019-02-07T11:21:50.439Z,7320.00
2019-02-07T11:22:50.450Z,7856.00
2019-02-07T11:23:50.417Z,6756.00
2019-02-07T11:24:50.404Z,5484.00
2019-02-07T11:25:50.398Z,4712.00
2019-02-07T11:26:50.382Z,5440.00
2019-02-07T11:27:50.385Z,6680.00
2019-02-07T11:28:50.382Z,7352.00
2019-02-07T11:29:50.360Z,7588.00
2019-02-07T11:30:50.356Z,6796.00
2019-02-07T11:31:50.337Z,6348.00
2019-02-07T11:32:50.321Z,5812.00
2019-02-07T11:33:50.314Z,5612.00
2019-02-07T11:34:50.324Z,5508.00
2019-02-07T11:35:50.288Z,5692.00
2019-02-07T11:36:54.091Z,6568.00
2019-02-07T11:37:50.271Z,8076.00
2019-02-07T11:38:50.258Z,8756.00
2019-02-07T11:39:50.258Z,8512.00
2019-02-07T11:40:50.261Z,7456.00
2019-02-07T11:41:50.226Z,7440.00
2019-02-07T11:42:50.218Z,7684.00
2019-02-07T11:43:50.206Z,7588.00
2019-02-07T11:44:50.750Z,6508.00
2019-02-07T11:45:50.184Z,5808.00
2019-02-07T11:46:50.209Z,5108.00
2019-02-07T11:47:50.166Z,4540.00
2019-02-07T11:48:50.152Z,4060.00
2019-02-07T11:49:50.146Z,4004.00
2019-02-07T11:50:50.133Z,4024.00
2019-02-07T11:51:50.146Z,4144.00
2019-02-07T11:52:50.161Z,4048.00
2019-02-07T11:53:50.102Z,3900.00
2019-02-07T11:54:50.092Z,4148.00
2019-02-07T11:55:50.083Z,4936.00
2019-02-07T11:56:50.069Z,5408.00
2019-02-07T11:57:50.060Z,5264.00
2019-02-07T11:58:50.062Z,4940.00
2019-02-07T11:59:50.037Z,4376.00
2019-02-07T12:00:50.051Z,4200.00
2019-02-07T12:01:50.018Z,4200.00
2019-02-07T12:02:50.009Z,4768.00
2019-02-07T12:03:49.996Z,5560.00
2019-02-07T12:04:50.002Z,5700.00
2019-02-07T12:05:49.976Z,5172.00
2019-02-07T12:06:49.967Z,4472.00
2019-02-07T12:07:49.954Z,4176.00
2019-02-07T12:08:49.944Z,3776.00
2019-02-07T12:09:49.935Z,3564.00
2019-02-07T12:10:50.030Z,3880.00
2019-02-07T12:11:49.916Z,4504.00
2019-02-07T12:12:49.909Z,4904.00
2019-02-07T12:13:49.939Z,5360.00
2019-02-07T12:14:49.877Z,6080.00
2019-02-07T12:15:49.868Z,6040.00
2019-02-07T12:16:49.884Z,6384.00
2019-02-07T12:17:49.856Z,5848.00
2019-02-07T12:18:49.839Z,4480.00
2019-02-07T12:19:49.830Z,3772.00
2019-02-07T12:20:49.814Z,3364.00
2019-02-07T12:21:49.810Z,3748.00
2019-02-07T12:22:49.815Z,4356.00
2019-02-07T12:23:49.788Z,4904.00
2019-02-07T12:24:49.778Z,5064.00
2019-02-07T12:25:49.766Z,4912.00
2019-02-07T12:26:49.756Z,4952.00
2019-02-07T12:27:49.754Z,4280.00
2019-02-07T12:28:49.763Z,3980.00
2019-02-07T12:29:49.727Z,4120.00
2019-02-07T12:30:49.717Z,4296.00
2019-02-07T12:31:49.705Z,4364.00
2019-02-07T12:32:49.693Z,4080.00
2019-02-07T12:33:49.687Z,3676.00
2019-02-07T12:34:49.692Z,3404.00
2019-02-07T12:35:49.662Z,3292.00
2019-02-07T12:36:49.651Z,3336.00
2019-02-07T12:37:49.642Z,3148.00
2019-02-07T12:38:49.632Z,2972.00
2019-02-07T12:39:49.620Z,2924.00
2019-02-07T12:40:49.622Z,3264.00
2019-02-07T12:41:49.600Z,3756.00